createdAt,value
2023-04-26T00:01:32.011Z,2.85
2023-04-26T00:04:00.687Z,2.85
2023-04-26T00:06:29.622Z,2.26
2023-04-26T00:08:58.476Z,2.13
2023-04-26T00:11:26.063Z,2.13
2023-04-26T00:13:53.516Z,2.13
2023-04-26T00:16:21.042Z,2.13
2023-04-26T00:18:49.219Z,2.13
2023-04-26T00:21:16.642Z,2.27
2023-04-26T00:23:45.633Z,2.27
2023-04-26T00:26:13.011Z,1.78
2023-04-26T00:28:40.413Z,1.57
2023-04-26T00:31:07.908Z,1.46
2023-04-26T00:33:35.448Z,1.25
2023-04-26T00:36:02.858Z,1.21
2023-04-26T00:38:32.482Z,1.13
2023-04-26T00:41:03.078Z,1.55
2023-04-26T00:43:30.477Z,1.49
2023-04-26T00:45:57.990Z,1.64
2023-04-26T00:48:25.500Z,1.51
2023-04-26T00:50:53.319Z,1.34
2023-04-26T00:53:22.073Z,1.11
2023-04-26T00:55:51.422Z,0.89
2023-04-26T00:58:20.412Z,0.91
2023-04-26T01:00:47.910Z,1.03
2023-04-26T01:03:15.519Z,1.02
2023-04-26T01:05:43.043Z,1.02
2023-04-26T01:08:11.125Z,0.77
2023-04-26T01:10:40.295Z,0.79
2023-04-26T01:13:08.086Z,0.83
2023-04-26T01:15:37.323Z,0.87
2023-04-26T01:18:05.012Z,0.83
2023-04-26T01:20:32.415Z,0.95
2023-04-26T01:23:01.566Z,0.83
2023-04-26T01:25:29.464Z,0.87
2023-04-26T01:27:56.828Z,0.67
2023-04-26T01:30:24.314Z,0.61
2023-04-26T01:32:51.753Z,0.48
2023-04-26T01:35:19.207Z,0.44
2023-04-26T01:37:46.548Z,0.18
2023-04-26T01:40:15.733Z,0.21
2023-04-26T01:42:43.106Z,0.24
2023-04-26T01:45:11.582Z,0.30
2023-04-26T01:47:39.015Z,0.24
2023-04-26T01:50:08.127Z,0.18
2023-04-26T01:52:35.503Z,0.04
2023-04-26T01:55:02.903Z,0.09
2023-04-26T01:57:31.613Z,0.12
2023-04-26T01:59:59.334Z,0.06
2023-04-26T02:02:26.755Z,0.12
2023-04-26T02:04:54.309Z,0.21
2023-04-26T02:07:21.719Z,0.07
2023-04-26T02:09:49.104Z,-0.01
2023-04-26T02:12:16.898Z,-0.18
2023-04-26T02:14:45.695Z,-0.23
2023-04-26T02:17:14.015Z,-0.12
2023-04-26T02:19:41.403Z,-0.07
2023-04-26T02:22:09.010Z,-0.29
2023-04-26T02:24:36.491Z,-0.39
2023-04-26T02:27:05.277Z,-0.41
2023-04-26T02:29:43.656Z,-0.30
2023-04-26T02:32:13.373Z,-0.16
2023-04-26T02:34:41.078Z,-0.22
2023-04-26T02:37:08.827Z,-0.29
2023-04-26T02:39:36.399Z,-0.24
2023-04-26T02:42:03.854Z,-0.27
2023-04-26T02:44:31.657Z,-0.34
2023-04-26T02:46:59.052Z,-0.47
2023-04-26T02:49:27.777Z,-0.57
2023-04-26T02:51:57.455Z,-0.54
2023-04-26T02:54:24.881Z,-0.44
2023-04-26T02:56:52.394Z,-0.44
2023-04-26T02:59:19.791Z,-0.45
2023-04-26T03:01:47.194Z,-0.45
2023-04-26T03:04:15.973Z,-0.51
2023-04-26T03:06:44.748Z,-0.63
2023-04-26T03:09:12.141Z,-0.62
2023-04-26T03:11:39.508Z,-0.71
2023-04-26T03:14:06.868Z,-0.60
2023-04-26T03:16:42.516Z,-0.48
2023-04-26T03:19:09.997Z,-0.50
2023-04-26T03:21:37.442Z,-0.58
2023-04-26T03:24:07.517Z,-0.63
2023-04-26T03:26:35.126Z,-0.78
2023-04-26T03:29:03.810Z,-0.96
2023-04-26T03:31:31.242Z,-0.80
2023-04-26T03:33:58.622Z,-0.73
2023-04-26T03:36:28.451Z,-0.81
2023-04-26T03:38:56.056Z,-0.81
2023-04-26T03:41:26.364Z,-1.06
2023-04-26T03:43:53.713Z,-0.88
2023-04-26T03:46:21.151Z,-0.84
2023-04-26T03:48:48.596Z,-0.86
2023-04-26T03:51:16.023Z,-0.90
2023-04-26T03:53:43.425Z,-1.01
2023-04-26T03:56:10.778Z,-1.06
2023-04-26T03:58:40.507Z,-1.12
2023-04-26T04:01:08.585Z,-0.97
2023-04-26T04:03:39.215Z,-0.92
2023-04-26T04:06:08.470Z,-1.17
2023-04-26T04:08:38.884Z,-1.20
2023-04-26T04:11:06.463Z,-1.19
2023-04-26T04:13:33.859Z,-0.98
2023-04-26T04:16:02.720Z,-1.01
2023-04-26T04:18:30.085Z,-0.85
2023-04-26T04:20:57.496Z,-0.77
2023-04-26T04:23:24.939Z,-0.65
2023-04-26T04:25:52.543Z,-0.43
2023-04-26T04:28:19.964Z,-0.43
2023-04-26T04:30:47.359Z,-0.55
2023-04-26T04:33:17.614Z,-0.47
2023-04-26T04:35:45.261Z,-0.53
2023-04-26T04:38:13.104Z,-0.53
2023-04-26T04:40:41.150Z,-0.43
2023-04-26T04:43:09.833Z,-0.33
2023-04-26T04:45:38.795Z,-0.20
2023-04-26T04:48:06.511Z,-0.14
2023-04-26T04:50:35.698Z,-0.10
2023-04-26T04:53:03.066Z,0.00
2023-04-26T04:55:30.499Z,0.22
2023-04-26T04:57:58.045Z,0.34
2023-04-26T05:00:25.406Z,0.42
2023-04-26T05:02:53.015Z,0.44
2023-04-26T05:05:20.578Z,0.54
2023-04-26T05:07:49.499Z,0.72
2023-04-26T05:10:16.983Z,0.79
2023-04-26T05:12:44.370Z,0.87
2023-04-26T05:15:12.120Z,1.02
2023-04-26T05:17:39.521Z,1.06
2023-04-26T05:20:09.373Z,1.13
2023-04-26T05:22:37.028Z,1.28
2023-04-26T05:25:07.927Z,1.47
2023-04-26T05:27:36.690Z,1.52
2023-04-26T05:30:04.423Z,1.70
2023-04-26T05:32:32.173Z,1.98
2023-04-26T05:34:59.648Z,2.02
2023-04-26T05:37:27.048Z,2.17
2023-04-26T05:39:54.419Z,2.36
2023-04-26T05:42:23.163Z,2.66
2023-04-26T05:44:50.558Z,2.90
2023-04-26T05:47:17.995Z,3.17
2023-04-26T05:49:45.428Z,3.37
2023-04-26T05:52:12.840Z,3.67
2023-04-26T05:54:40.427Z,4.03
2023-04-26T05:57:07.953Z,4.41
2023-04-26T05:59:38.233Z,4.67
2023-04-26T06:02:05.706Z,4.91
2023-04-26T06:04:33.389Z,5.20
2023-04-26T06:07:01.375Z,5.52
2023-04-26T06:09:29.029Z,5.72
2023-04-26T06:11:56.999Z,5.64
2023-04-26T06:16:58.560Z,5.73
2023-04-26T06:19:26.061Z,5.72
2023-04-26T06:21:55.267Z,5.46
2023-04-26T06:24:23.797Z,5.33
2023-04-26T06:26:55.990Z,5.05
2023-04-26T06:29:25.930Z,5.09
2023-04-26T06:31:54.813Z,5.03
2023-04-26T06:34:23.656Z,5.26
2023-04-26T06:36:52.737Z,5.08
2023-04-26T06:39:24.138Z,4.95
2023-04-26T06:41:53.583Z,4.94
2023-04-26T06:44:22.548Z,4.86
2023-04-26T06:46:50.330Z,4.77
2023-04-26T06:49:19.048Z,4.94
2023-04-26T06:51:47.865Z,4.85
2023-04-26T06:54:15.560Z,4.86
2023-04-26T06:56:42.922Z,4.85
2023-04-26T06:59:10.455Z,5.13
2023-04-26T07:01:37.917Z,5.20
2023-04-26T07:04:07.852Z,5.43
2023-04-26T07:06:35.495Z,5.66
2023-04-26T07:09:04.679Z,5.64
2023-04-26T07:11:34.162Z,5.54
2023-04-26T07:14:03.253Z,5.90
2023-04-26T07:16:31.377Z,6.05
2023-04-26T07:18:58.889Z,6.54
2023-04-26T07:21:26.656Z,6.73
2023-04-26T07:23:55.732Z,6.97
2023-04-26T07:26:25.104Z,7.17
2023-04-26T07:28:52.779Z,7.17
2023-04-26T07:31:20.297Z,6.96
2023-04-26T07:33:47.835Z,7.06
2023-04-26T07:36:15.776Z,7.16
2023-04-26T07:38:43.138Z,7.10
2023-04-26T07:41:12.857Z,7.10
2023-04-26T07:43:43.362Z,7.01
2023-04-26T07:46:15.258Z,7.09
2023-04-26T07:48:43.027Z,7.37
2023-04-26T07:51:11.826Z,7.54
2023-04-26T07:53:39.477Z,7.64
2023-04-26T07:56:08.621Z,7.36
2023-04-26T07:58:36.621Z,7.57
2023-04-26T08:01:05.668Z,8.16
2023-04-26T08:03:33.632Z,8.62
2023-04-26T08:06:02.243Z,8.74
2023-04-26T08:08:29.874Z,8.78
2023-04-26T08:10:59.016Z,8.87
2023-04-26T08:13:29.162Z,8.71
2023-04-26T08:15:57.746Z,8.08
2023-04-26T08:18:26.491Z,8.18
2023-04-26T08:20:55.119Z,8.04
2023-04-26T08:23:22.760Z,8.56
2023-04-26T08:25:50.591Z,9.13
2023-04-26T08:28:17.977Z,9.58
2023-04-26T08:30:45.505Z,9.04
2023-04-26T08:33:14.517Z,9.08
2023-04-26T08:35:43.567Z,8.64
2023-04-26T08:38:12.268Z,8.35
2023-04-26T08:40:40.329Z,8.64
2023-04-26T08:43:11.820Z,8.90
2023-04-26T08:45:42.364Z,8.82
2023-04-26T08:48:14.975Z,9.59
2023-04-26T08:50:46.541Z,9.94
2023-04-26T08:53:19.559Z,10.43
2023-04-26T08:55:50.581Z,10.46
2023-04-26T08:58:18.697Z,10.31
2023-04-26T09:00:48.626Z,9.44
2023-04-26T09:03:18.294Z,8.45
2023-04-26T09:05:48.752Z,8.52
2023-04-26T09:08:18.179Z,8.49
2023-04-26T09:10:48.569Z,8.69
2023-04-26T09:13:16.257Z,8.82
2023-04-26T09:15:44.551Z,9.14
2023-04-26T09:18:19.162Z,8.98
2023-04-26T09:21:06.293Z,9.01
2023-04-26T09:23:33.896Z,9.31
2023-04-26T09:26:19.402Z,9.30
2023-04-26T09:28:51.894Z,9.84
2023-04-26T09:31:40.319Z,9.58
2023-04-26T09:34:11.003Z,9.74
2023-04-26T09:36:53.413Z,9.34
2023-04-26T09:39:35.535Z,9.23
2023-04-26T09:42:05.607Z,9.27
2023-04-26T09:44:33.407Z,10.07
2023-04-26T09:47:03.905Z,10.33
2023-04-26T09:49:32.726Z,10.38
2023-04-26T09:52:07.857Z,10.72
2023-04-26T09:54:45.063Z,10.41
2023-04-26T09:57:16.659Z,10.18
2023-04-26T09:59:48.012Z,9.91
2023-04-26T10:02:17.814Z,10.39
2023-04-26T10:04:47.916Z,11.01
2023-04-26T10:07:19.154Z,10.86
2023-04-26T10:09:47.682Z,10.84
2023-04-26T10:12:19.795Z,9.83
2023-04-26T10:14:48.473Z,9.25
2023-04-26T10:17:17.250Z,9.26
2023-04-26T10:19:46.434Z,9.31
2023-04-26T10:22:22.625Z,9.28
2023-04-26T10:24:50.994Z,8.93
2023-04-26T10:27:48.758Z,8.98
2023-04-26T10:30:17.467Z,9.26
2023-04-26T10:36:04.395Z,10.80
2023-04-26T10:38:33.860Z,10.11
2023-04-26T10:41:30.969Z,10.27
2023-04-26T10:43:59.826Z,10.67
2023-04-26T10:46:43.166Z,10.87
2023-04-26T10:49:25.679Z,11.49
2023-04-26T10:52:16.224Z,12.32
2023-04-26T10:54:56.280Z,13.18
2023-04-26T10:57:26.922Z,13.18
2023-04-26T11:00:28.551Z,13.14
2023-04-26T11:03:01.041Z,12.62
2023-04-26T11:05:41.920Z,11.96
2023-04-26T11:08:17.079Z,12.20
2023-04-26T11:10:50.744Z,12.00
2023-04-26T11:13:22.205Z,11.96
2023-04-26T11:15:54.622Z,11.77
2023-04-26T11:18:22.746Z,11.26
2023-04-26T11:20:52.635Z,11.10
2023-04-26T11:23:20.575Z,11.53
2023-04-26T11:25:50.525Z,12.40
2023-04-26T11:28:19.848Z,11.74
2023-04-26T11:30:47.201Z,10.89
2023-04-26T11:33:19.636Z,10.45
2023-04-26T11:35:47.931Z,10.26
2023-04-26T11:38:16.308Z,9.34
2023-04-26T11:40:43.858Z,9.89
2023-04-26T11:43:19.817Z,9.57
2023-04-26T11:45:51.775Z,9.66
2023-04-26T11:48:26.030Z,9.51
2023-04-26T11:50:53.595Z,9.10
2023-04-26T11:53:22.592Z,9.02
2023-04-26T11:55:50.877Z,9.06
2023-04-26T11:58:19.647Z,9.27
2023-04-26T12:00:59.572Z,9.46
2023-04-26T12:03:35.321Z,9.52
2023-04-26T12:06:02.986Z,10.02
2023-04-26T12:08:32.504Z,10.83
2023-04-26T12:11:02.842Z,11.34
2023-04-26T12:13:32.832Z,11.87
2023-04-26T12:16:00.444Z,11.27
2023-04-26T12:18:32.575Z,11.48
2023-04-26T12:21:00.518Z,11.18
2023-04-26T12:23:40.281Z,11.00
2023-04-26T12:26:16.930Z,10.71
2023-04-26T12:28:48.353Z,10.72
2023-04-26T12:31:17.340Z,10.74
2023-04-26T12:33:46.352Z,10.69
2023-04-26T12:36:14.302Z,11.19
2023-04-26T12:38:41.739Z,12.17
2023-04-26T12:41:09.171Z,15.51
2023-04-26T12:43:36.803Z,17.29
2023-04-26T12:46:05.744Z,16.06
2023-04-26T12:48:33.178Z,14.05
2023-04-26T12:51:03.685Z,13.13
2023-04-26T12:53:31.084Z,12.04
2023-04-26T12:55:58.654Z,11.23
2023-04-26T12:58:26.410Z,10.71
2023-04-26T13:00:54.087Z,10.84
2023-04-26T13:03:23.009Z,10.96
2023-04-26T13:05:53.687Z,10.71
2023-04-26T13:08:24.335Z,10.29
2023-04-26T13:10:52.126Z,10.18
2023-04-26T13:13:21.983Z,10.77
2023-04-26T13:15:51.379Z,11.01
2023-04-26T13:18:18.928Z,11.25
2023-04-26T13:20:50.422Z,11.17
2023-04-26T13:23:21.922Z,11.38
2023-04-26T13:25:49.334Z,11.56
2023-04-26T13:28:16.782Z,10.66
2023-04-26T13:30:44.233Z,10.73
2023-04-26T13:33:11.935Z,10.29
2023-04-26T13:35:39.377Z,10.13
2023-04-26T13:38:08.156Z,9.91
2023-04-26T13:40:36.488Z,9.80
2023-04-26T13:43:03.958Z,9.76
2023-04-26T13:45:35.857Z,9.71
2023-04-26T13:48:03.490Z,9.71
2023-04-26T13:50:30.951Z,9.85
2023-04-26T13:52:58.407Z,10.12
2023-04-26T13:55:27.401Z,9.76
2023-04-26T13:57:55.849Z,9.52
2023-04-26T14:00:27.055Z,9.39
2023-04-26T14:02:59.294Z,9.57
2023-04-26T14:05:26.808Z,9.72
2023-04-26T14:07:55.224Z,10.14
2023-04-26T14:10:22.947Z,10.19
2023-04-26T14:12:55.624Z,10.27
2023-04-26T14:15:23.418Z,10.42
2023-04-26T14:17:51.099Z,10.89
2023-04-26T14:20:18.594Z,11.13
2023-04-26T14:22:46.174Z,11.71
2023-04-26T14:25:13.545Z,12.54
2023-04-26T14:27:40.917Z,12.85
2023-04-26T14:30:10.540Z,12.11
2023-04-26T14:32:37.973Z,12.00
2023-04-26T14:35:06.215Z,11.77
2023-04-26T14:37:33.704Z,11.47
2023-04-26T14:40:01.258Z,11.77
2023-04-26T14:42:29.256Z,11.90
2023-04-26T14:44:59.426Z,11.93
2023-04-26T14:47:29.200Z,11.41
2023-04-26T14:49:59.137Z,12.02
2023-04-26T14:52:27.911Z,13.50
2023-04-26T14:54:55.313Z,13.73
2023-04-26T14:57:22.907Z,12.61
2023-04-26T14:59:50.354Z,12.59
2023-04-26T15:02:17.825Z,12.98
2023-04-26T15:04:46.986Z,12.16
2023-04-26T15:07:24.878Z,12.28
2023-04-26T15:09:59.217Z,12.83
2023-04-26T15:12:26.616Z,13.91
2023-04-26T15:14:54.008Z,15.19
2023-04-26T15:17:21.643Z,16.32
2023-04-26T15:19:50.469Z,14.34
2023-04-26T15:22:17.910Z,14.12
2023-04-26T15:24:45.330Z,12.52
2023-04-26T15:27:12.781Z,11.55
2023-04-26T15:29:41.646Z,11.09
2023-04-26T15:32:09.993Z,11.06
2023-04-26T15:34:44.063Z,11.36
2023-04-26T15:37:12.950Z,11.57
2023-04-26T15:39:40.322Z,12.12
2023-04-26T15:42:07.808Z,13.69
2023-04-26T15:44:35.554Z,15.37
2023-04-26T15:47:04.875Z,15.99
2023-04-26T15:49:32.316Z,17.36
2023-04-26T15:51:59.721Z,16.14
2023-04-26T15:54:28.475Z,15.70
2023-04-26T15:56:56.126Z,15.42
2023-04-26T15:59:23.509Z,15.39
2023-04-26T16:01:51.012Z,15.46
2023-04-26T16:04:18.785Z,14.70
2023-04-26T16:06:46.326Z,15.01
2023-04-26T16:09:24.875Z,15.52
2023-04-26T16:11:54.594Z,15.47
2023-04-26T16:14:22.314Z,15.65
2023-04-26T16:16:49.694Z,14.89
2023-04-26T16:19:17.227Z,16.72
2023-04-26T16:21:44.663Z,15.99
2023-04-26T16:24:13.268Z,14.18
2023-04-26T16:26:43.464Z,13.92
2023-04-26T16:29:12.187Z,14.37
2023-04-26T16:31:39.892Z,13.68
2023-04-26T16:34:07.499Z,11.41
2023-04-26T16:36:37.490Z,10.17
2023-04-26T16:39:04.872Z,9.64
2023-04-26T16:41:32.328Z,9.25
2023-04-26T16:44:02.095Z,9.10
2023-04-26T16:46:33.490Z,9.07
2023-04-26T16:49:01.010Z,9.16
2023-04-26T16:51:30.800Z,9.29
2023-04-26T16:53:58.182Z,9.23
2023-04-26T16:56:25.671Z,9.33
2023-04-26T16:58:53.193Z,9.44
2023-04-26T17:01:20.920Z,9.57
2023-04-26T17:03:55.691Z,9.55
2023-04-26T17:06:23.261Z,9.33
2023-04-26T17:08:52.474Z,9.90
2023-04-26T17:11:19.911Z,9.70
2023-04-26T17:13:47.391Z,9.66
2023-04-26T17:16:14.813Z,9.87
2023-04-26T17:18:42.685Z,10.20
2023-04-26T17:21:11.503Z,11.15
2023-04-26T17:23:41.509Z,10.96
2023-04-26T17:26:10.178Z,10.60
2023-04-26T17:28:38.866Z,10.36
2023-04-26T17:31:06.339Z,10.28
2023-04-26T17:33:33.736Z,10.15
2023-04-26T17:36:05.393Z,9.96
2023-04-26T17:38:34.170Z,9.67
2023-04-26T17:41:01.581Z,9.51
2023-04-26T17:43:29.011Z,9.30
2023-04-26T17:45:56.564Z,9.10
2023-04-26T17:48:26.955Z,8.92
2023-04-26T17:50:59.981Z,8.73
2023-04-26T17:53:28.713Z,8.75
2023-04-26T17:55:57.454Z,8.73
2023-04-26T17:58:24.940Z,8.72
2023-04-26T18:00:52.367Z,8.70
2023-04-26T18:03:20.619Z,8.64
2023-04-26T18:05:48.413Z,8.71
2023-04-26T18:08:15.836Z,8.57
2023-04-26T18:10:43.228Z,8.62
2023-04-26T18:13:15.940Z,8.58
2023-04-26T18:15:43.332Z,8.54
2023-04-26T18:18:10.902Z,8.39
2023-04-26T18:20:38.351Z,8.24
2023-04-26T18:23:06.288Z,8.12
2023-04-26T18:25:33.711Z,8.09
2023-04-26T18:28:01.159Z,8.05
2023-04-26T18:30:29.972Z,8.00
2023-04-26T18:32:57.614Z,7.89
2023-04-26T18:35:27.708Z,7.81
2023-04-26T18:37:55.513Z,7.80
2023-04-26T18:40:22.906Z,7.69
2023-04-26T18:42:51.775Z,7.60
2023-04-26T18:45:19.439Z,7.65
2023-04-26T18:47:48.297Z,7.58
2023-04-26T18:50:16.862Z,7.77
2023-04-26T18:52:44.289Z,7.91
2023-04-26T18:55:11.807Z,8.04
2023-04-26T18:57:39.254Z,8.11
2023-04-26T19:00:12.395Z,8.15
2023-04-26T19:02:41.826Z,8.11
2023-04-26T19:05:11.960Z,8.10
2023-04-26T19:07:41.496Z,8.11
2023-04-26T19:10:09.789Z,8.05
2023-04-26T19:12:38.205Z,8.03
2023-04-26T19:15:06.491Z,8.01
2023-04-26T19:17:34.342Z,8.00
2023-04-26T19:20:01.833Z,8.01
2023-04-26T19:22:31.071Z,7.95
2023-04-26T19:24:59.796Z,7.99
2023-04-26T19:27:27.264Z,7.96
2023-04-26T19:29:59.517Z,7.93
2023-04-26T19:32:27.184Z,7.94
2023-04-26T19:34:54.586Z,7.93
2023-04-26T19:37:22.070Z,7.86
2023-04-26T19:39:50.850Z,7.81
2023-04-26T19:42:22.782Z,7.85
2023-04-26T19:44:50.208Z,7.80
2023-04-26T19:47:17.863Z,7.66
2023-04-26T19:49:45.379Z,7.49
2023-04-26T19:52:13.432Z,7.38
2023-04-26T19:54:40.886Z,7.37
2023-04-26T19:57:09.798Z,7.32
2023-04-26T19:59:37.189Z,7.33
2023-04-26T20:02:06.453Z,7.27
2023-04-26T20:04:34.134Z,7.33
2023-04-26T20:07:04.697Z,7.28
2023-04-26T20:09:33.548Z,7.28
2023-04-26T20:12:01.011Z,7.24
2023-04-26T20:14:30.521Z,7.27
2023-04-26T20:17:02.391Z,7.29
2023-04-26T20:19:30.559Z,7.28
2023-04-26T20:21:59.770Z,7.22
2023-04-26T20:24:28.156Z,7.12
2023-04-26T20:26:56.245Z,7.11
2023-04-26T20:29:23.885Z,6.95
2023-04-26T20:31:52.721Z,6.87
2023-04-26T20:34:20.396Z,6.68
2023-04-26T20:36:47.781Z,6.64
2023-04-26T20:39:16.324Z,6.58
2023-04-26T20:41:43.747Z,6.53
2023-04-26T20:44:11.259Z,6.55
2023-04-26T20:46:38.903Z,6.52
2023-04-26T20:49:08.137Z,6.64
2023-04-26T20:51:35.675Z,6.62
2023-04-26T20:54:03.090Z,6.54
2023-04-26T20:56:30.549Z,6.51
2023-04-26T20:58:58.493Z,6.47
2023-04-26T21:01:27.773Z,6.29
2023-04-26T21:03:55.311Z,6.28
2023-04-26T21:06:24.214Z,6.37
2023-04-26T21:08:51.634Z,6.41
2023-04-26T21:11:19.103Z,6.39
2023-04-26T21:13:48.021Z,6.41
2023-04-26T21:16:15.741Z,6.43
2023-04-26T21:18:43.172Z,6.31
2023-04-26T21:21:11.000Z,6.35
2023-04-26T21:23:39.710Z,6.29
2023-04-26T21:26:07.363Z,6.27
2023-04-26T21:28:34.754Z,6.22
2023-04-26T21:31:04.510Z,6.13
2023-04-26T21:33:32.288Z,6.05
2023-04-26T21:36:00.504Z,6.01
2023-04-26T21:38:28.314Z,5.95
2023-04-26T21:40:57.098Z,5.91
2023-04-26T21:43:24.969Z,5.99
2023-04-26T21:45:53.093Z,5.95
2023-04-26T21:48:22.111Z,5.94
2023-04-26T21:50:57.152Z,5.54
2023-04-26T21:53:24.624Z,5.95
2023-04-26T21:55:53.024Z,5.73
2023-04-26T21:58:24.294Z,5.58
2023-04-26T22:00:52.026Z,5.51
2023-04-26T22:03:20.002Z,5.44
2023-04-26T22:05:47.503Z,5.32
2023-04-26T22:08:14.944Z,5.20
2023-04-26T22:10:44.233Z,4.93
2023-04-26T22:13:11.678Z,4.75
2023-04-26T22:15:41.044Z,4.59
2023-04-26T22:18:08.475Z,4.35
2023-04-26T22:20:38.683Z,4.26
2023-04-26T22:23:06.111Z,4.08
2023-04-26T22:25:33.515Z,3.92
2023-04-26T22:28:00.967Z,3.80
2023-04-26T22:30:28.404Z,3.68
2023-04-26T22:32:59.467Z,3.59
2023-04-26T22:35:28.605Z,3.55
2023-04-26T22:37:56.283Z,3.43
2023-04-26T22:40:23.732Z,3.25
2023-04-26T22:42:51.198Z,3.23
2023-04-26T22:45:22.999Z,3.15
2023-04-26T22:47:50.835Z,3.10
2023-04-26T22:50:19.667Z,2.97
2023-04-26T22:52:47.139Z,2.83
2023-04-26T22:55:14.513Z,2.71
2023-04-26T22:57:43.419Z,2.59
2023-04-26T23:00:13.518Z,2.59
2023-04-26T23:02:41.139Z,2.62
2023-04-26T23:05:10.480Z,2.67
2023-04-26T23:07:39.790Z,2.58
2023-04-26T23:10:08.392Z,2.47
2023-04-26T23:12:37.027Z,2.52
2023-04-26T23:15:06.338Z,2.66
2023-04-26T23:17:34.547Z,2.62
2023-04-26T23:20:02.140Z,2.66
2023-04-26T23:22:29.560Z,2.68
2023-04-26T23:24:58.286Z,2.65
2023-04-26T23:27:27.643Z,2.79
2023-04-26T23:29:55.020Z,2.87
2023-04-26T23:32:22.381Z,2.76
2023-04-26T23:34:51.272Z,2.80
2023-04-26T23:37:20.080Z,2.79
2023-04-26T23:39:47.489Z,2.77
2023-04-26T23:42:16.265Z,2.71
2023-04-26T23:44:43.651Z,2.68
2023-04-26T23:47:11.113Z,2.69
2023-04-26T23:49:38.595Z,2.66
2023-04-26T23:52:06.138Z,2.64
2023-04-26T23:54:33.867Z,2.69
2023-04-26T23:57:01.902Z,2.71
2023-04-26T23:59:30.781Z,2.80
